地図

経路データ

SID SEASON NUMBER BASIN SUBBASIN NAME ISO_TIME NATURE LAT LON WMO_WIND WMO_PRES WMO_AGENCY TRACK_TYPE DIST2LAND LANDFALL IFLAG USA_AGENCY USA_ATCF_ID USA_LAT USA_LON USA_RECORD USA_STATUS USA_WIND USA_PRES USA_SSHS USA_R34_NE USA_R34_SE USA_R34_SW USA_R34_NW USA_R50_NE USA_R50_SE USA_R50_SW USA_R50_NW USA_R64_NE USA_R64_SE USA_R64_SW USA_R64_NW USA_POCI USA_ROCI USA_RMW USA_EYE TOKYO_LAT TOKYO_LON TOKYO_GRADE TOKYO_WIND TOKYO_PRES TOKYO_R50_DIR TOKYO_R50_LONG TOKYO_R50_SHORT TOKYO_R30_DIR TOKYO_R30_LONG TOKYO_R30_SHORT TOKYO_LAND CMA_LAT CMA_LON CMA_CAT CMA_WIND CMA_PRES HKO_LAT HKO_LON HKO_CAT HKO_WIND HKO_PRES NEWDELHI_LAT NEWDELHI_LON NEWDELHI_GRADE NEWDELHI_WIND NEWDELHI_PRES NEWDELHI_CI NEWDELHI_DP NEWDELHI_POCI REUNION_LAT REUNION_LON REUNION_TYPE REUNION_WIND REUNION_PRES REUNION_TNUM REUNION_CI REUNION_RMW REUNION_R34_NE REUNION_R34_SE REUNION_R34_SW REUNION_R34_NW REUNION_R50_NE REUNION_R50_SE REUNION_R50_SW REUNION_R50_NW REUNION_R64_NE REUNION_R64_SE REUNION_R64_SW REUNION_R64_NW BOM_LAT BOM_LON BOM_TYPE BOM_WIND BOM_PRES BOM_TNUM BOM_CI BOM_RMW BOM_R34_NE BOM_R34_SE BOM_R34_SW BOM_R34_NW BOM_R50_NE BOM_R50_SE BOM_R50_SW BOM_R50_NW BOM_R64_NE BOM_R64_SE BOM_R64_SW BOM_R64_NW BOM_ROCI BOM_POCI BOM_EYE BOM_POS_METHOD BOM_PRES_METHOD NADI_LAT NADI_LON NADI_CAT NADI_WIND NADI_PRES WELLINGTON_LAT WELLINGTON_LON WELLINGTON_WIND WELLINGTON_PRES DS824_LAT DS824_LON DS824_STAGE DS824_WIND DS824_PRES TD9636_LAT TD9636_LON TD9636_STAGE TD9636_WIND TD9636_PRES TD9635_LAT TD9635_LON TD9635_WIND TD9635_PRES TD9635_ROCI NEUMANN_LAT NEUMANN_LON NEUMANN_CLASS NEUMANN_WIND NEUMANN_PRES MLC_LAT MLC_LON MLC_CLASS MLC_WIND MLC_PRES USA_GUST BOM_GUST BOM_GUST_PER REUNION_GUST REUNION_GUST_PER USA_SEAHGT USA_SEARAD_NE USA_SEARAD_SE USA_SEARAD_SW USA_SEARAD_NW STORM_SPEED STORM_DIR
1885281N15297 1885 47 NA CS NOT_NAMED 1885-10-07 12:00:00 TS 14.5000 -63.5000 main 427 427 _____________O -1 14.5000 -63.5000 TD 30 5 351
1885281N15297 1885 47 NA CS NOT_NAMED 1885-10-07 15:00:00 TS 14.7500 -63.5500 main 434 409 _____________P -1 14.7500 -63.5500 TD 30 5 349
1885281N15297 1885 47 NA CS NOT_NAMED 1885-10-07 18:00:00 TS 15.0000 -63.6000 main 409 391 _____________O -1 15.0000 -63.6000 TD 30 5 349
1885281N15297 1885 47 NA CS NOT_NAMED 1885-10-07 21:00:00 TS 15.2500 -63.6500 main 375 358 _____________P -1 15.2500 -63.6500 TD 30 5 349
1885281N15297 1885 47 NA CS NOT_NAMED 1885-10-08 00:00:00 TS 15.5000 -63.7000 main 358 340 _____________O -1 15.5000 -63.7000 TD 30 5 349
1885281N15297 1885 47 NA CS NOT_NAMED 1885-10-08 03:00:00 TS 15.7500 -63.7500 main 325 308 _____________P -1 15.7500 -63.7500 TD 30 5 349
1885281N15297 1885 47 NA CS NOT_NAMED 1885-10-08 06:00:00 TS 16.0000 -63.8000 main 308 292 _____________O -1 16.0000 -63.8000 TD 30 5 353
1885281N15297 1885 47 NA CS NOT_NAMED 1885-10-08 09:00:00 TS 16.2199 -63.8128 main 292 262 _____________P -1 16.2199 -63.8128 TD 30 5 349
1885281N15297 1885 47 NA CS NOT_NAMED 1885-10-08 12:00:00 TS 16.5000 -63.9000 main 262 207 _____________O -1 16.5000 -63.9000 TD 30 8 334
1885281N15297 1885 47 NA CS NOT_NAMED 1885-10-08 15:00:00 TS 16.9201 -64.1698 main 207 146 _____________P -1 16.9201 -64.1698 TD 30 11 328
1885281N15297 1885 47 NA CS NOT_NAMED 1885-10-08 18:00:00 TS 17.4000 -64.5000 main 146 105 _____________O -1 17.4000 -64.5000 TD 30 11 329
1885281N15297 1885 47 NA CS NOT_NAMED 1885-10-08 21:00:00 TS 17.8499 -64.7577 main 95 63 _____________P -1 17.8499 -64.7577 TD 30 10 332
1885281N15297 1885 47 NA CS NOT_NAMED 1885-10-09 00:00:00 TS 18.3000 -65.0000 main 63 47 _____________O -1 18.3000 -65.0000 TD 30 10 333
1885281N15297 1885 47 NA CS NOT_NAMED 1885-10-09 03:00:00 TS 18.7575 -65.2501 main 54 54 _____________P -1 18.7575 -65.2501 TD 30 10 332
1885281N15297 1885 47 NA NA NOT_NAMED 1885-10-09 06:00:00 TS 19.2000 -65.5000 main 90 90 _____________O -1 19.2000 -65.5000 TD 30 10 331
1885281N15297 1885 47 NA NA NOT_NAMED 1885-10-09 09:00:00 TS 19.6375 -65.7724 main 134 134 _____________P -1 19.6375 -65.7724 TD 30 9 329
1885281N15297 1885 47 NA NA NOT_NAMED 1885-10-09 12:00:00 TS 20.0000 -66.0000 main 178 178 _____________O -1 20.0000 -66.0000 TD 30 7 330
1885281N15297 1885 47 NA NA NOT_NAMED 1885-10-09 15:00:00 TS 20.2299 -66.1302 main 201 201 _____________P -1 20.2299 -66.1302 TD 30 4 335
1885281N15297 1885 47 NA NA NOT_NAMED 1885-10-09 18:00:00 TS 20.4000 -66.2000 main 223 223 _____________O -1 20.4000 -66.2000 TD 30 4 343
1885281N15297 1885 47 NA NA NOT_NAMED 1885-10-09 21:00:00 TS 20.6000 -66.2575 main 246 246 _____________P -1 20.6000 -66.2575 TD 30 4 347
1885281N15297 1885 47 NA NA NOT_NAMED 1885-10-10 00:00:00 TS 20.8000 -66.3000 main 268 268 _____________O -1 20.8000 -66.3000 TD 30 4 348
1885281N15297 1885 47 NA NA NOT_NAMED 1885-10-10 03:00:00 TS 21.0075 -66.3500 main 290 290 _____________P -1 21.0075 -66.3500 TD 30 4 347
1885281N15297 1885 47 NA NA NOT_NAMED 1885-10-10 06:00:00 TS 21.2000 -66.4000 main 313 313 _____________O -1 21.2000 -66.4000 TD 30 3 343
1885281N15297 1885 47 NA NA NOT_NAMED 1885-10-10 09:00:00 TS 21.3425 -66.4500 main 324 324 _____________P -1 21.3425 -66.4500 TD 30 3 343
1885281N15297 1885 47 NA NA NOT_NAMED 1885-10-10 12:00:00 TS 21.5000 -66.5000 main 346 346 _____________O -1 21.5000 -66.5000 TD 30 4 348
1885281N15297 1885 47 NA NA NOT_NAMED 1885-10-10 15:00:00 TS 21.7350 -66.5425 main 369 369 _____________P -1 21.7350 -66.5425 TD 30 5 349
1885281N15297 1885 47 NA NA NOT_NAMED 1885-10-10 18:00:00 TS 22.0000 -66.6000 main 402 402 _____________O -1 22.0000 -66.6000 TD 30 5 344
1885281N15297 1885 47 NA NA NOT_NAMED 1885-10-10 21:00:00 TS 22.2575 -66.6999 main 430 430 _____________P -1 22.2575 -66.6999 TD 30 5 340
1885281N15297 1885 47 NA NA NOT_NAMED 1885-10-11 00:00:00 TS 22.5000 -66.8000 main 442 442 _____________O -1 22.5000 -66.8000 TD 30 5 341
1885281N15297 1885 47 NA NA NOT_NAMED 1885-10-11 03:00:00 TS 22.6925 -66.8576 main 454 454 _____________P -1 22.6925 -66.8576 TD 30 4 348
1885281N15297 1885 47 NA NA NOT_NAMED 1885-10-11 06:00:00 TS 22.9000 -66.9000 main 473 473 _____________O -1 22.9000 -66.9000 TD 30 5 352
1885281N15297 1885 47 NA NA NOT_NAMED 1885-10-11 09:00:00 TS 23.1925 -66.9351 main 501 501 _____________P -1 23.1925 -66.9351 TD 30 6 352
1885281N15297 1885 47 NA NA NOT_NAMED 1885-10-11 12:00:00 TS 23.5000 -67.0000 main 526 526 _____________O -1 23.5000 -67.0000 TD 30 6 341
1885281N15297 1885 47 NA NA NOT_NAMED 1885-10-11 15:00:00 TS 23.7575 -67.1424 main 552 547 _____________P -1 23.7575 -67.1424 TD 30 6 331
1885281N15297 1885 47 NA NA NOT_NAMED 1885-10-11 18:00:00 TS 24.0000 -67.3000 main 564 564 _____________O -1 24.0000 -67.3000 TD 30 5 335
1885281N15297 1885 47 NA NA NOT_NAMED 1885-10-11 21:00:00 TS 24.2500 -67.4001 main 579 579 _____________P -1 24.2500 -67.4001 TD 32 5 340
1885281N15297 1885 47 NA NA NOT_NAMED 1885-10-12 00:00:00 TS 24.5000 -67.5000 main 605 605 _____________O -1 24.5000 -67.5000 TS 35 6 335
1885281N15297 1885 47 NA NA NOT_NAMED 1885-10-12 03:00:00 TS 24.7500 -67.6500 main 631 627 _____________P -1 24.7500 -67.6500 TS 35 6 331
1885281N15297 1885 47 NA NA NOT_NAMED 1885-10-12 06:00:00 TS 25.0000 -67.8000 main 644 644 _____________O -1 25.0000 -67.8000 TS 35 6 330
1885281N15297 1885 47 NA NA NOT_NAMED 1885-10-12 09:00:00 TS 25.2948 -67.9974 main 669 669 _____________P -1 25.2948 -67.9974 TS 37 5 340
1885281N15297 1885 47 NA NA NOT_NAMED 1885-10-12 12:00:00 TS 25.5000 -68.0000 main 690 690 _____________O -1 25.5000 -68.0000 TS 40 4 61
1885281N15297 1885 47 NA NA NOT_NAMED 1885-10-12 15:00:00 TS 25.4954 -67.5898 main 704 704 _____________P -1 25.4954 -67.5898 TS 40 9 96
1885281N15297 1885 47 NA NA NOT_NAMED 1885-10-12 18:00:00 TS 25.4000 -67.0000 main 717 717 _____________O -1 25.4000 -67.0000 TS 40 10 99
1885281N15297 1885 47 NA NA NOT_NAMED 1885-10-12 21:00:00 TS 25.3494 -66.5376 main 729 729 _____________P -1 25.3494 -66.5376 TS 40 9 96
1885281N15297 1885 47 NA NA NOT_NAMED 1885-10-13 00:00:00 TS 25.3000 -66.0000 main 751 751 _____________O -1 25.3000 -66.0000 TS 40 11 95
1885281N15297 1885 47 NA NA NOT_NAMED 1885-10-13 03:00:00 TS 25.2576 -65.2876 main 772 761 _____________P -1 25.2576 -65.2876 TS 40 14 94
1885281N15297 1885 47 NA NA NOT_NAMED 1885-10-13 06:00:00 TS 25.2000 -64.5000 main 768 767 _____________O -1 25.2000 -64.5000 TS 40 15 96
1885281N15297 1885 47 NA NA NOT_NAMED 1885-10-13 09:00:00 TS 25.1080 -63.6673 main 774 774 _____________P -1 25.1080 -63.6673 TS 40 14 98
1885281N15297 1885 47 NA NA NOT_NAMED 1885-10-13 12:00:00 TS 25.0000 -63.0000 main 785 782 _____________O -1 25.0000 -63.0000 TS 40 9 104
1885281N15297 1885 47 NA NA NOT_NAMED 1885-10-13 15:00:00 TS 24.8918 -62.7102 main 786 779 _____________P -1 24.8918 -62.7102 TS 40 4 119
1885281N15297 1885 47 NA NA NOT_NAMED 1885-10-13 18:00:00 TS 24.8000 -62.6000 main 779 773 _____________O -1 24.8000 -62.6000 TS 40 3 122
1885281N15297 1885 47 NA NA NOT_NAMED 1885-10-13 21:00:00 TS 24.7424 -62.4501 main 773 773 _____________P -1 24.7424 -62.4501 TS 40 3 110
1885281N15297 1885 47 NA NA NOT_NAMED 1885-10-14 00:00:00 TS 24.7000 -62.3000 main 782 782 _____________O -1 24.7000 -62.3000 TS 40 3 107
1885281N15297 1885 47 NA NA NOT_NAMED 1885-10-14 03:00:00 TS 24.6500 -62.1075 main 791 781 _____________P -1 24.6500 -62.1075 TS 40 4 105
1885281N15297 1885 47 NA NA NOT_NAMED 1885-10-14 06:00:00 TS 24.6000 -61.9000 main 791 791 _____________O -1 24.6000 -61.9000 TS 40 4 101
1885281N15297 1885 47 NA NA NOT_NAMED 1885-10-14 09:00:00 TS 24.5650 -61.6324 main 807 797 _____________P -1 24.5650 -61.6324 TS 42 4 105
1885281N15297 1885 47 NA NA NOT_NAMED 1885-10-14 12:00:00 TS 24.5000 -61.5000 main 803 782 _____________O -1 24.5000 -61.5000 TS 45 1005 2 188
1885281N15297 1885 47 NA NA NOT_NAMED 1885-10-14 15:00:00 TS 24.3576 -61.6827 main 782 747 _____________P -1 24.3576 -61.6827 TS 45 5 237
1885281N15297 1885 47 NA NA NOT_NAMED 1885-10-14 18:00:00 TS 24.2000 -62.0000 main 747 728 _____________O -1 24.2000 -62.0000 TS 45 6 243
1885281N15297 1885 47 NA NA NOT_NAMED 1885-10-14 21:00:00 TS 24.1073 -62.2272 main 728 703 _____________P -1 24.1073 -62.2272 TS 47 5 246
1885281N15297 1885 47 NA NA NOT_NAMED 1885-10-15 00:00:00 TS 24.0000 -62.5000 main 703 665 _____________O -1 24.0000 -62.5000 TS 50 7 244
1885281N15297 1885 47 NA NA NOT_NAMED 1885-10-15 03:00:00 TS 23.8151 -62.8851 main 665 628 _____________P -1 23.8151 -62.8851 TS 50 8 241
1885281N15297 1885 47 NA NA NOT_NAMED 1885-10-15 06:00:00 TS 23.6000 -63.3000 main 628 592 _____________O -1 23.6000 -63.3000 TS 50 9 238
1885281N15297 1885 47 NA NA NOT_NAMED 1885-10-15 09:00:00 TS 23.3551 -63.6952 main 592 561 _____________P -1 23.3551 -63.6952 TS 50 8 238
1885281N15297 1885 47 NA NA NOT_NAMED 1885-10-15 12:00:00 TS 23.2000 -64.0000 main 561 558 _____________O -1 23.2000 -64.0000 TS 50 998 4 257
1885281N15297 1885 47 NA NA NOT_NAMED 1885-10-15 15:00:00 TS 23.2624 -64.1373 main 569 566 _____________P -1 23.2624 -64.1373 TS 50 3 317
1885281N15297 1885 47 NA NA NOT_NAMED 1885-10-15 18:00:00 TS 23.4000 -64.2000 main 577 575 _____________O -1 23.4000 -64.2000 TS 50 2 323
1885281N15297 1885 47 NA NA NOT_NAMED 1885-10-15 21:00:00 TS 23.4575 -64.3000 main 586 583 _____________P -1 23.4575 -64.3000 TS 47 2 299
1885281N15297 1885 47 NA NA NOT_NAMED 1885-10-16 00:00:00 TS 23.5000 -64.4000 main 583 581 _____________O -1 23.5000 -64.4000 TS 45 2 296
1885281N15297 1885 47 NA NA NOT_NAMED 1885-10-16 03:00:00 TS 23.5500 -64.5075 main 592 590 _____________P -1 23.5500 -64.5075 TS 45 2 299
1885281N15297 1885 47 NA NA NOT_NAMED 1885-10-16 06:00:00 TS 23.6000 -64.6000 main 590 587 _____________O -1 23.6000 -64.6000 TS 45 3 281
1885281N15297 1885 47 NA NA NOT_NAMED 1885-10-16 09:00:00 TS 23.5969 -64.7767 main 587 587 _____________P -1 23.5969 -64.7767 TS 45 1 320
1885281N15297 1885 47 NA NA NOT_NAMED 1885-10-16 12:00:00 TS 23.7000 -64.7000 main 599 599 _____________O -1 23.7000 -64.7000 TS 45 1003 8 56
1885281N15297 1885 47 NA NA NOT_NAMED 1885-10-16 15:00:00 TS 24.0407 -64.0706 main 645 645 _____________P -1 24.0407 -64.0706 TS 45 16 60
1885281N15297 1885 47 NA NA NOT_NAMED 1885-10-16 18:00:00 TS 24.5000 -63.2000 main 725 725 _____________O -1 24.5000 -63.2000 TS 45 17 57
1885281N15297 1885 47 NA NA NOT_NAMED 1885-10-16 21:00:00 TS 24.9486 -62.5090 main 794 794 _____________P -1 24.9486 -62.5090 TS 45 16 57
1885281N15297 1885 47 NA NA NOT_NAMED 1885-10-17 00:00:00 TS 25.4000 -61.7000 main 879 879 _____________O -1 25.4000 -61.7000 TS 45 19 63
1885281N15297 1885 47 NA NA NOT_NAMED 1885-10-17 03:00:00 TS 25.8077 -60.6170 main 974 974 _____________P -1 25.8077 -60.6170 TS 45 22 69
1885281N15297 1885 47 NA NA NOT_NAMED 1885-10-17 06:00:00 TS 26.2000 -59.4000 main 1079 1079 _____________O -1 26.2000 -59.4000 TS 45 24 71
1885281N15297 1885 47 NA NA NOT_NAMED 1885-10-17 09:00:00 TS 26.6092 -58.0660 main 1196 1196 _____________P -1 26.6092 -58.0660 TS 42 23 70
1885281N15297 1885 47 NA NA NOT_NAMED 1885-10-17 12:00:00 TS 27.0000 -57.0000 main 1303 1303 _____________O -1 27.0000 -57.0000 TS 40 16 62
1885281N15297 1885 47 NA NA NOT_NAMED 1885-10-17 15:00:00 TS 27.3482 -56.5317 main 1362 1362 _____________P -1 27.3482 -56.5317 TS 37 8 32
1885281N15297 1885 47 NA NA NOT_NAMED 1885-10-17 18:00:00 TS 27.7000 -56.5000 main 1394 1394 _____________O -1 27.7000 -56.5000 TS 35 8 347
1885281N15297 1885 47 NA NA NOT_NAMED 1885-10-17 21:00:00 TS 28.0927 -56.7337 main 1413 1407 _____________P -1 28.0927 -56.7337 TS 32 9 331
1885281N15297 1885 47 NA NA NOT_NAMED 1885-10-18 00:00:00 TS 28.5000 -57.0000 main 1428 1428 _____________O -1 28.5000 -57.0000 TD 30 8 350
1885281N15297 1885 47 NA NA NOT_NAMED 1885-10-18 03:00:00 TS 28.9075 -56.9032 main 1468 1468 _____________P -1 28.9075 -56.9032 TD 27 8 18
1885281N15297 1885 47 NA NA NOT_NAMED 1885-10-18 06:00:00 TS 29.3000 -56.7000 main 1515 1515 _____________O -1 29.3000 -56.7000 TD 25 8 21
1885281N15297 1885 47 NA NA NOT_NAMED 1885-10-18 09:00:00 TS 29.6600 -56.5697 main 1556 1556 _____________P -1 29.6600 -56.5697 TD 25 7 14
1885281N15297 1885 47 NA NA NOT_NAMED 1885-10-18 12:00:00 TS 30.0000 -56.5000 main 1589 _____________O -1 30.0000 -56.5000 TD 25 7 10

IBTrACS Databaseについて

本データベースは、米国NOAAが公開する1842年以降の世界の熱帯低気圧のベストトラックデータアーカイブInternational Best Track Archive for Climate Stewardship (IBTrACS)を、ウェブで閲覧しやすい形式に変換したものです。

最終更新日:2021-12-06